createdAt,value
2023-04-15T00:01:45.127Z,99564.48
2023-04-15T00:04:12.959Z,99568.06
2023-04-15T00:06:40.996Z,99566.07
2023-04-15T00:09:08.915Z,99559.05
2023-04-15T00:11:37.091Z,99561.99
2023-04-15T00:14:06.193Z,99563.02
2023-04-15T00:16:33.841Z,99561.75
2023-04-15T00:19:01.653Z,99556.62
2023-04-15T00:21:29.501Z,99560.65
2023-04-15T00:23:57.392Z,99559.30
2023-04-15T00:26:25.133Z,99558.30
2023-04-15T00:28:53.816Z,99555.35
2023-04-15T00:31:22.112Z,99555.97
2023-04-15T00:33:50.011Z,99553.48
2023-04-15T00:36:17.678Z,99554.59
2023-04-15T00:38:45.352Z,99553.86
2023-04-15T00:41:13.223Z,99555.86
2023-04-15T00:43:40.954Z,99551.98
2023-04-15T00:46:10.540Z,99554.55
2023-04-15T00:48:40.282Z,99557.94
2023-04-15T00:51:09.692Z,99556.14
2023-04-15T00:53:37.424Z,99555.34
2023-04-15T00:56:06.784Z,99553.25
2023-04-15T00:58:34.884Z,99557.15
2023-04-15T01:01:04.433Z,99557.35
2023-04-15T01:03:32.328Z,99560.27
2023-04-15T01:06:03.397Z,99556.67
2023-04-15T01:08:31.818Z,99561.27
2023-04-15T01:11:03.756Z,99563.09
2023-04-15T01:13:33.908Z,99562.02
2023-04-15T01:16:03.159Z,99557.84
2023-04-15T01:18:31.724Z,99556.36
2023-04-15T01:21:01.798Z,99557.17
2023-04-15T01:23:29.649Z,99562.42
2023-04-15T01:25:59.182Z,99562.32
2023-04-15T01:28:27.184Z,99564.50
2023-04-15T01:31:12.437Z,99564.48
2023-04-15T01:33:42.712Z,99561.61
2023-04-15T01:36:10.856Z,99561.23
2023-04-15T01:38:39.105Z,99563.95
2023-04-15T01:41:08.086Z,99562.61
2023-04-15T01:43:38.875Z,99562.22
2023-04-15T01:46:07.159Z,99562.69
2023-04-15T01:48:35.022Z,99558.29
2023-04-15T01:51:04.856Z,99558.08
2023-04-15T01:53:32.742Z,99555.16
2023-04-15T01:56:00.466Z,99558.12
2023-04-15T01:58:28.154Z,99556.00
2023-04-15T02:00:55.950Z,99555.54
2023-04-15T02:03:25.622Z,99554.52
2023-04-15T02:05:53.701Z,99556.58
2023-04-15T02:08:22.496Z,99556.04
2023-04-15T02:10:50.206Z,99552.00
2023-04-15T02:13:17.862Z,99556.60
2023-04-15T02:15:49.502Z,99553.79
2023-04-15T02:18:18.686Z,99557.32
2023-04-15T02:20:47.177Z,99557.07
2023-04-15T02:23:14.852Z,99552.55
2023-04-15T02:25:53.380Z,99553.46
2023-04-15T02:28:22.035Z,99556.33
2023-04-15T02:30:53.666Z,99559.79
2023-04-15T02:33:21.831Z,99555.91
2023-04-15T02:35:49.834Z,99556.03
2023-04-15T02:38:18.377Z,99554.29
2023-04-15T02:40:46.586Z,99554.91
2023-04-15T02:43:14.281Z,99555.75
2023-04-15T02:45:43.614Z,99552.90
2023-04-15T02:48:11.567Z,99554.29
2023-04-15T02:50:40.668Z,99552.39
2023-04-15T02:53:09.322Z,99553.98
2023-04-15T02:55:37.054Z,99553.06
2023-04-15T02:58:04.755Z,99549.67
2023-04-15T03:00:32.571Z,99546.67
2023-04-15T03:03:05.627Z,99549.84
2023-04-15T03:05:33.494Z,99549.15
2023-04-15T03:08:03.101Z,99551.48
2023-04-15T03:10:30.723Z,99552.92
2023-04-15T03:12:58.357Z,99547.39
2023-04-15T03:15:27.097Z,99547.02
2023-04-15T03:17:55.076Z,99552.44
2023-04-15T03:20:23.475Z,99554.03
2023-04-15T03:22:51.199Z,99555.36
2023-04-15T03:25:20.226Z,99555.40
2023-04-15T03:27:47.866Z,99553.77
2023-04-15T03:30:16.089Z,99556.02
2023-04-15T03:32:43.826Z,99553.70
2023-04-15T03:35:11.946Z,99553.23
2023-04-15T03:37:39.689Z,99555.71
2023-04-15T03:40:08.769Z,99555.36
2023-04-15T03:42:36.416Z,99553.60
2023-04-15T03:45:04.675Z,99552.77
2023-04-15T03:47:32.303Z,99549.17
2023-04-15T03:49:59.948Z,99553.83
2023-04-15T03:52:27.534Z,99555.52
2023-04-15T03:54:55.133Z,99553.12
2023-04-15T03:57:22.939Z,99558.16
2023-04-15T03:59:50.632Z,99557.88
2023-04-15T04:02:18.445Z,99558.17
2023-04-15T04:04:46.501Z,99563.58
2023-04-15T04:07:18.403Z,99563.81
2023-04-15T04:09:47.475Z,99560.57
2023-04-15T04:12:15.572Z,99563.12
2023-04-15T04:14:43.258Z,99566.05
2023-04-15T04:17:11.822Z,99567.44
2023-04-15T04:19:39.703Z,99564.46
2023-04-15T04:22:07.360Z,99567.23
2023-04-15T04:24:35.729Z,99561.21
2023-04-15T04:27:03.404Z,99564.48
2023-04-15T04:29:31.319Z,99562.59
2023-04-15T04:31:58.982Z,99564.50
2023-04-15T04:34:26.617Z,99565.38
2023-04-15T04:36:54.457Z,99567.39
2023-04-15T04:39:22.103Z,99566.48
2023-04-15T04:41:50.269Z,99564.25
2023-04-15T04:44:18.545Z,99566.70
2023-04-15T04:46:46.193Z,99563.82
2023-04-15T04:49:13.773Z,99569.23
2023-04-15T04:51:41.852Z,99564.96
2023-04-15T04:54:09.648Z,99565.95
2023-04-15T04:56:39.298Z,99561.20
2023-04-15T04:59:07.714Z,99565.42
2023-04-15T05:01:35.698Z,99564.66
2023-04-15T05:04:05.470Z,99565.35
2023-04-15T05:06:33.890Z,99566.65
2023-04-15T05:09:01.972Z,99565.04
2023-04-15T05:11:29.952Z,99568.55
2023-04-15T05:13:58.162Z,99571.87
2023-04-15T05:16:26.149Z,99571.31
2023-04-15T05:18:53.919Z,99571.89
2023-04-15T05:21:21.735Z,99570.74
2023-04-15T05:23:49.479Z,99575.22
2023-04-15T05:26:17.717Z,99573.39
2023-04-15T05:28:45.474Z,99574.73
2023-04-15T05:31:13.574Z,99575.42
2023-04-15T05:33:42.455Z,99571.69
2023-04-15T05:36:10.089Z,99572.97
2023-04-15T05:38:37.770Z,99575.35
2023-04-15T05:41:05.559Z,99576.30
2023-04-15T05:43:33.504Z,99578.64
2023-04-15T05:46:01.307Z,99585.69
2023-04-15T05:48:29.021Z,99581.31
2023-04-15T05:50:56.726Z,99580.14
2023-04-15T05:53:25.008Z,99582.08
2023-04-15T05:55:52.661Z,99581.98
2023-04-15T05:58:20.758Z,99580.08
2023-04-15T06:00:51.272Z,99579.50
2023-04-15T06:03:19.150Z,99578.69
2023-04-15T06:05:46.905Z,99580.95
2023-04-15T06:08:14.752Z,99583.04
2023-04-15T06:10:42.715Z,99584.05
2023-04-15T06:13:10.361Z,99587.56
2023-04-15T06:15:38.417Z,99591.02
2023-04-15T06:18:06.242Z,99595.36
2023-04-15T06:20:34.077Z,99597.39
2023-04-15T06:23:02.036Z,99600.77
2023-04-15T06:25:29.771Z,99599.86
2023-04-15T06:27:57.520Z,99600.66
2023-04-15T06:30:25.422Z,99604.40
2023-04-15T06:32:56.851Z,99605.07
2023-04-15T06:35:25.334Z,99602.91
2023-04-15T06:37:53.044Z,99602.55
2023-04-15T06:40:21.015Z,99603.29
2023-04-15T06:42:48.727Z,99604.59
2023-04-15T06:45:18.771Z,99604.20
2023-04-15T06:47:46.737Z,99607.36
2023-04-15T06:50:14.756Z,99610.46
2023-04-15T06:52:42.468Z,99609.52
2023-04-15T06:55:10.406Z,99613.34
2023-04-15T06:57:38.053Z,99616.23
2023-04-15T07:00:07.601Z,99617.19
2023-04-15T07:02:35.791Z,99618.21
2023-04-15T07:05:06.204Z,99621.84
2023-04-15T07:07:33.976Z,99623.71
2023-04-15T07:10:03.373Z,99629.61
2023-04-15T07:12:32.092Z,99627.98
2023-04-15T07:14:59.942Z,99630.06
2023-04-15T07:17:27.944Z,99633.35
2023-04-15T07:19:56.152Z,99632.63
2023-04-15T07:22:23.965Z,99637.05
2023-04-15T07:24:51.904Z,99637.25
2023-04-15T07:27:19.557Z,99637.11
2023-04-15T07:29:48.247Z,99637.23
2023-04-15T07:32:16.474Z,99639.56
2023-04-15T07:34:44.824Z,99635.52
2023-04-15T07:37:12.802Z,99632.91
2023-04-15T07:39:40.492Z,99634.10
2023-04-15T07:42:08.892Z,99630.81
2023-04-15T07:44:37.076Z,99631.30
2023-04-15T07:47:04.907Z,99632.25
2023-04-15T07:49:32.514Z,99632.91
2023-04-15T07:52:00.584Z,99632.95
2023-04-15T07:54:28.821Z,99637.19
2023-04-15T07:56:57.396Z,99632.59
2023-04-15T07:59:25.563Z,99634.27
2023-04-15T08:01:53.764Z,99639.14
2023-04-15T08:04:21.742Z,99636.61
2023-04-15T08:06:50.728Z,99634.31
2023-04-15T08:09:19.883Z,99635.34
2023-04-15T08:11:49.568Z,99637.70
2023-04-15T08:14:17.537Z,99630.24
2023-04-15T08:16:45.145Z,99633.77
2023-04-15T08:19:12.787Z,99634.80
2023-04-15T08:21:41.087Z,99636.23
2023-04-15T08:24:08.810Z,99633.01
2023-04-15T08:26:36.448Z,99638.37
2023-04-15T08:29:04.204Z,99640.83
2023-04-15T08:31:32.152Z,99640.91
2023-04-15T08:34:00.503Z,99643.77
2023-04-15T08:36:28.518Z,99642.40
2023-04-15T08:38:56.329Z,99639.03
2023-04-15T08:41:25.538Z,99643.93
2023-04-15T08:43:57.397Z,99637.69
2023-04-15T08:46:25.500Z,99640.46
2023-04-15T08:48:56.983Z,99638.55
2023-04-15T08:51:25.705Z,99644.22
2023-04-15T08:53:55.015Z,99642.33
2023-04-15T08:56:27.097Z,99643.40
2023-04-15T08:58:54.894Z,99648.86
2023-04-15T09:01:23.035Z,99649.23
2023-04-15T09:03:51.538Z,99650.21
2023-04-15T09:06:20.567Z,99653.42
2023-04-15T09:08:48.256Z,99652.25
2023-04-15T09:11:19.449Z,99653.20
2023-04-15T09:13:49.534Z,99650.95
2023-04-15T09:16:17.310Z,99655.56
2023-04-15T09:18:45.074Z,99657.42
2023-04-15T09:21:15.694Z,99659.23
2023-04-15T09:24:02.005Z,99656.29
2023-04-15T09:26:40.576Z,99655.18
2023-04-15T09:29:10.146Z,99661.19
2023-04-15T09:31:37.709Z,99662.77
2023-04-15T09:34:06.896Z,99661.30
2023-04-15T09:36:56.187Z,99665.19
2023-04-15T09:39:23.925Z,99666.02
2023-04-15T09:42:08.729Z,99663.90
2023-04-15T09:44:36.800Z,99668.13
2023-04-15T09:47:04.510Z,99668.48
2023-04-15T09:49:33.237Z,99668.59
2023-04-15T09:52:06.208Z,99672.83
2023-04-15T09:54:36.576Z,99668.77
2023-04-15T09:57:10.218Z,99672.64
2023-04-15T09:59:38.211Z,99673.40
2023-04-15T10:02:07.523Z,99677.20
2023-04-15T10:04:39.336Z,99676.88
2023-04-15T10:07:10.019Z,99682.30
2023-04-15T10:09:39.687Z,99681.18
2023-04-15T10:12:07.795Z,99681.09
2023-04-15T10:14:38.696Z,99681.81
2023-04-15T10:17:11.051Z,99678.55
2023-04-15T10:19:39.184Z,99680.51
2023-04-15T10:22:08.091Z,99679.61
2023-04-15T10:24:37.290Z,99680.35
2023-04-15T10:27:06.391Z,99679.66
2023-04-15T10:29:35.088Z,99682.39
2023-04-15T10:32:03.636Z,99686.02
2023-04-15T10:34:33.008Z,99686.16
2023-04-15T10:37:04.555Z,99689.15
2023-04-15T10:39:42.966Z,99687.68
2023-04-15T10:42:16.083Z,99686.98
2023-04-15T10:44:45.890Z,99686.17
2023-04-15T10:47:16.054Z,99689.55
2023-04-15T10:49:58.991Z,99687.02
2023-04-15T10:52:28.428Z,99691.38
2023-04-15T10:55:11.306Z,99687.77
2023-04-15T10:57:40.040Z,99693.58
2023-04-15T11:00:17.793Z,99692.20
2023-04-15T11:02:57.065Z,99696.55
2023-04-15T11:05:42.977Z,99699.07
2023-04-15T11:08:11.817Z,99695.11
2023-04-15T11:10:39.385Z,99697.42
2023-04-15T11:13:09.880Z,99699.05
2023-04-15T11:15:43.012Z,99693.71
2023-04-15T11:18:12.651Z,99697.55
2023-04-15T11:20:42.750Z,99700.23
2023-04-15T11:23:15.123Z,99696.37
2023-04-15T11:25:44.465Z,99699.67
2023-04-15T11:28:13.626Z,99702.91
2023-04-15T11:30:42.690Z,99703.25
2023-04-15T11:33:12.442Z,99700.77
2023-04-15T11:35:42.044Z,99702.84
2023-04-15T11:38:12.254Z,99700.30
2023-04-15T11:40:40.999Z,99703.19
2023-04-15T11:43:10.681Z,99707.49
2023-04-15T11:46:01.357Z,99706.80
2023-04-15T11:48:31.738Z,99713.52
2023-04-15T11:51:07.180Z,99715.23
2023-04-15T11:53:40.922Z,99715.45
2023-04-15T11:56:11.189Z,99716.52
2023-04-15T11:58:39.394Z,99716.73
2023-04-15T12:01:07.671Z,99716.09
2023-04-15T12:03:41.319Z,99715.27
2023-04-15T12:06:20.916Z,99717.54
2023-04-15T12:08:49.434Z,99717.39
2023-04-15T12:11:17.393Z,99718.73
2023-04-15T12:13:48.194Z,99719.85
2023-04-15T12:16:20.238Z,99722.27
2023-04-15T12:18:52.060Z,99722.45
2023-04-15T12:21:21.069Z,99728.45
2023-04-15T12:23:52.977Z,99727.95
2023-04-15T12:26:34.537Z,99732.55
2023-04-15T12:29:03.313Z,99736.48
2023-04-15T12:31:31.068Z,99741.42
2023-04-15T12:34:01.485Z,99742.09
2023-04-15T12:36:36.079Z,99744.16
2023-04-15T12:39:05.281Z,99745.78
2023-04-15T12:41:33.245Z,99746.20
2023-04-15T12:44:01.518Z,99745.67
2023-04-15T12:46:29.436Z,99744.80
2023-04-15T12:48:57.216Z,99746.45
2023-04-15T12:51:24.841Z,99741.77
2023-04-15T12:53:52.733Z,99739.80
2023-04-15T12:56:20.415Z,99738.92
2023-04-15T12:58:48.087Z,99737.46
2023-04-15T13:01:15.706Z,99740.54
2023-04-15T13:03:43.499Z,99733.30
2023-04-15T13:06:11.211Z,99739.96
2023-04-15T13:08:42.681Z,99738.52
2023-04-15T13:11:11.041Z,99735.73
2023-04-15T13:13:38.674Z,99735.23
2023-04-15T13:16:06.620Z,99741.55
2023-04-15T13:18:34.857Z,99751.30
2023-04-15T13:21:05.264Z,99757.04
2023-04-15T13:23:33.928Z,99759.83
2023-04-15T13:26:01.653Z,99771.69
2023-04-15T13:28:29.293Z,99775.80
2023-04-15T13:30:56.985Z,99781.39
2023-04-15T13:33:24.589Z,99779.64
2023-04-15T13:35:52.256Z,99784.09
2023-04-15T13:38:20.423Z,99782.93
2023-04-15T13:40:48.049Z,99783.80
2023-04-15T13:43:15.765Z,99783.17
2023-04-15T13:45:44.353Z,99782.20
2023-04-15T13:48:12.111Z,99781.59
2023-04-15T13:50:41.722Z,99788.36
2023-04-15T13:53:09.502Z,99786.66
2023-04-15T13:55:41.480Z,99789.75
2023-04-15T13:58:09.638Z,99790.54
2023-04-15T14:00:37.477Z,99790.63
2023-04-15T14:03:05.355Z,99793.17
2023-04-15T14:05:33.363Z,99793.27
2023-04-15T14:08:01.610Z,99791.59
2023-04-15T14:10:29.213Z,99796.17
2023-04-15T14:12:56.860Z,99795.41
2023-04-15T14:15:24.544Z,99790.90
2023-04-15T14:17:52.344Z,99796.65
2023-04-15T14:20:20.031Z,99798.38
2023-04-15T14:22:47.660Z,99798.77
2023-04-15T14:25:30.591Z,99801.11
2023-04-15T14:28:03.414Z,99798.77
2023-04-15T14:30:31.224Z,99792.25
2023-04-15T14:32:58.883Z,99789.95
2023-04-15T14:35:27.324Z,99786.23
2023-04-15T14:37:55.807Z,99790.45
2023-04-15T14:40:23.599Z,99792.15
2023-04-15T14:42:51.569Z,99788.36
2023-04-15T14:45:19.423Z,99795.05
2023-04-15T14:47:47.574Z,99796.95
2023-04-15T14:50:15.416Z,99803.61
2023-04-15T14:52:43.241Z,99809.08
2023-04-15T14:55:12.650Z,99816.20
2023-04-15T14:57:41.625Z,99818.06
2023-04-15T15:00:12.760Z,99822.61
2023-04-15T15:02:44.167Z,99819.05
2023-04-15T15:05:12.530Z,99825.65
2023-04-15T15:07:43.378Z,99831.45
2023-04-15T15:10:11.001Z,99834.38
2023-04-15T15:12:38.748Z,99844.42
2023-04-15T15:15:15.580Z,99845.35
2023-04-15T15:17:53.879Z,99847.61
2023-04-15T15:20:23.001Z,99846.67
2023-04-15T15:22:51.142Z,99845.25
2023-04-15T15:25:18.783Z,99843.36
2023-04-15T15:27:46.784Z,99842.20
2023-04-15T15:30:14.731Z,99844.11
2023-04-15T15:32:42.896Z,99843.76
2023-04-15T15:35:11.174Z,99845.72
2023-04-15T15:37:38.974Z,99844.95
2023-04-15T15:40:07.956Z,99844.91
2023-04-15T15:42:35.824Z,99841.84
2023-04-15T15:45:04.669Z,99844.34
2023-04-15T15:47:34.587Z,99839.73
2023-04-15T15:50:05.586Z,99843.56
2023-04-15T15:52:33.980Z,99846.01
2023-04-15T15:55:02.132Z,99844.02
2023-04-15T15:57:29.893Z,99845.95
2023-04-15T16:00:10.280Z,99842.62
2023-04-15T16:05:11.775Z,99848.36
2023-04-15T16:07:39.496Z,99857.62
2023-04-15T16:10:07.743Z,99860.38
2023-04-15T16:12:35.553Z,99859.41
2023-04-15T16:15:04.374Z,99859.17
2023-04-15T16:17:32.511Z,99869.25
2023-04-15T16:20:01.409Z,99875.05
2023-04-15T16:22:29.568Z,99880.19
2023-04-15T16:24:58.278Z,99883.00
2023-04-15T16:27:26.982Z,99882.27
2023-04-15T16:29:54.661Z,99888.92
2023-04-15T16:32:22.474Z,99889.91
2023-04-15T16:34:51.979Z,99889.56
2023-04-15T16:37:21.525Z,99893.83
2023-04-15T16:39:49.214Z,99897.34
2023-04-15T16:42:17.141Z,99895.55
2023-04-15T16:44:44.800Z,99901.54
2023-04-15T16:47:12.432Z,99904.03
2023-04-15T16:49:40.103Z,99909.02
2023-04-15T16:52:07.978Z,99912.73
2023-04-15T16:54:40.568Z,99916.29
2023-04-15T16:57:08.892Z,99919.45
2023-04-15T16:59:36.627Z,99929.45
2023-04-15T17:02:04.425Z,99932.67
2023-04-15T17:04:32.215Z,99937.91
2023-04-15T17:07:00.145Z,99934.17
2023-04-15T17:09:27.958Z,99943.86
2023-04-15T17:11:56.044Z,99941.85
2023-04-15T17:14:24.121Z,99945.80
2023-04-15T17:16:51.844Z,99945.91
2023-04-15T17:19:19.522Z,99948.12
2023-04-15T17:21:47.239Z,99946.47
2023-04-15T17:24:14.951Z,99954.58
2023-04-15T17:26:42.587Z,99953.17
2023-04-15T17:29:11.144Z,99953.48
2023-04-15T17:31:38.995Z,99952.65
2023-04-15T17:34:10.592Z,99957.24
2023-04-15T17:36:39.464Z,99958.98
2023-04-15T17:39:07.490Z,99961.89
2023-04-15T17:41:35.444Z,99965.89
2023-04-15T17:44:03.255Z,99968.48
2023-04-15T17:46:31.838Z,99974.14
2023-04-15T17:48:59.567Z,99984.11
2023-04-15T17:51:28.055Z,99986.43
2023-04-15T17:54:07.496Z,99992.33
2023-04-15T17:56:36.136Z,99996.59
2023-04-15T17:59:03.898Z,100003.14
2023-04-15T18:01:32.261Z,100006.94
2023-04-15T18:04:00.744Z,100010.88
2023-04-15T18:06:29.060Z,100015.77
2023-04-15T18:08:57.515Z,100021.84
2023-04-15T18:11:26.041Z,100028.36
2023-04-15T18:13:53.686Z,100030.61
2023-04-15T18:16:21.943Z,100035.39
2023-04-15T18:18:49.698Z,100042.46
2023-04-15T18:21:17.440Z,100044.51
2023-04-15T18:23:46.074Z,100049.83
2023-04-15T18:26:14.043Z,100048.64
2023-04-15T18:28:41.897Z,100052.08
2023-04-15T18:31:10.370Z,100055.36
2023-04-15T18:33:39.132Z,100053.42
2023-04-15T18:36:06.932Z,100060.67
2023-04-15T18:38:34.671Z,100064.73
2023-04-15T18:41:02.788Z,100070.77
2023-04-15T18:43:31.244Z,100068.91
2023-04-15T18:46:00.130Z,100074.54
2023-04-15T18:48:28.031Z,100075.88
2023-04-15T18:50:58.477Z,100080.42
2023-04-15T18:53:28.015Z,100086.61
2023-04-15T18:55:57.992Z,100088.56
2023-04-15T18:58:27.774Z,100093.87
2023-04-15T19:01:17.599Z,100095.19
2023-04-15T19:03:45.891Z,100096.05
2023-04-15T19:06:14.347Z,100101.78
2023-04-15T19:08:50.038Z,100104.35
2023-04-15T19:11:18.347Z,100107.02
2023-04-15T19:13:46.875Z,100109.71
2023-04-15T19:16:14.591Z,100111.23
2023-04-15T19:18:43.006Z,100115.24
2023-04-15T19:21:12.654Z,100117.08
2023-04-15T19:23:44.018Z,100120.73
2023-04-15T19:26:12.198Z,100123.21
2023-04-15T19:28:40.210Z,100124.39
2023-04-15T19:31:10.116Z,100129.05
2023-04-15T19:33:38.460Z,100131.07
2023-04-15T19:36:07.602Z,100132.31
2023-04-15T19:38:36.037Z,100137.21
2023-04-15T19:41:04.715Z,100138.02
2023-04-15T19:43:33.443Z,100142.71
2023-04-15T19:46:01.408Z,100144.77
2023-04-15T19:48:29.375Z,100142.42
2023-04-15T19:50:57.672Z,100142.28
2023-04-15T19:53:25.706Z,100145.04
2023-04-15T19:55:53.336Z,100149.11
2023-04-15T19:58:21.122Z,100149.98
2023-04-15T20:00:48.903Z,100151.93
2023-04-15T20:03:17.524Z,100150.39
2023-04-15T20:05:45.400Z,100149.95
2023-04-15T20:08:13.075Z,100147.30
2023-04-15T20:10:40.772Z,100147.82
2023-04-15T20:13:08.405Z,100146.98
2023-04-15T20:15:36.688Z,100150.29
2023-04-15T20:18:04.610Z,100155.27
2023-04-15T20:20:34.597Z,100152.65
2023-04-15T20:23:02.822Z,100152.48
2023-04-15T20:25:30.468Z,100148.25
2023-04-15T20:28:00.884Z,100147.20
2023-04-15T20:30:29.438Z,100145.34
2023-04-15T20:32:57.334Z,100145.74
2023-04-15T20:35:28.282Z,100148.05
2023-04-15T20:37:56.184Z,100146.33
2023-04-15T20:40:23.905Z,100151.29
2023-04-15T20:42:51.715Z,100152.55
2023-04-15T20:45:19.417Z,100154.36
2023-04-15T20:47:47.166Z,100154.98
2023-04-15T20:50:14.804Z,100161.04
2023-04-15T20:52:42.582Z,100162.67
2023-04-15T20:55:10.444Z,100161.16
2023-04-15T20:57:38.085Z,100163.86
2023-04-15T21:00:06.464Z,100167.56
2023-04-15T21:02:34.286Z,100167.07
2023-04-15T21:05:02.117Z,100171.23
2023-04-15T21:07:29.777Z,100171.84
2023-04-15T21:09:57.383Z,100177.02
2023-04-15T21:12:25.068Z,100179.11
2023-04-15T21:14:52.735Z,100178.55
2023-04-15T21:17:20.639Z,100182.42
2023-04-15T21:19:48.331Z,100184.61
2023-04-15T21:22:16.383Z,100186.11
2023-04-15T21:24:44.241Z,100186.75
2023-04-15T21:27:11.906Z,100190.07
2023-04-15T21:29:40.886Z,100190.39
2023-04-15T21:32:08.665Z,100189.81
2023-04-15T21:34:36.629Z,100191.40
2023-04-15T21:37:04.479Z,100199.06
2023-04-15T21:39:32.266Z,100196.21
2023-04-15T21:41:59.906Z,100194.26
2023-04-15T21:44:27.770Z,100196.79
2023-04-15T21:46:55.706Z,100194.11
2023-04-15T21:49:25.388Z,100200.18
2023-04-15T21:51:53.218Z,100202.79
2023-04-15T21:54:21.158Z,100203.42
2023-04-15T21:56:50.113Z,100204.52
2023-04-15T21:59:17.826Z,100201.59
2023-04-15T22:01:45.687Z,100203.52
2023-04-15T22:04:13.653Z,100205.33
2023-04-15T22:06:41.479Z,100207.83
2023-04-15T22:09:10.582Z,100210.39
2023-04-15T22:11:39.914Z,100214.99
2023-04-15T22:14:07.698Z,100220.14
2023-04-15T22:16:35.389Z,100222.80
2023-04-15T22:19:03.320Z,100224.27
2023-04-15T22:21:31.899Z,100224.19
2023-04-15T22:24:38.054Z,100222.92
2023-04-15T22:26:47.323Z,100224.64
2023-04-15T22:29:15.133Z,100222.86
2023-04-15T22:31:42.849Z,100227.85
2023-04-15T22:34:10.551Z,100229.05
2023-04-15T22:36:38.218Z,100229.52
2023-04-15T22:39:06.277Z,100235.21
2023-04-15T22:41:34.316Z,100239.33
2023-04-15T22:44:01.967Z,100240.45
2023-04-15T22:46:29.747Z,100239.90
2023-04-15T22:48:57.467Z,100240.58
2023-04-15T22:51:29.285Z,100237.59
2023-04-15T22:53:57.354Z,100242.27
2023-04-15T22:56:25.498Z,100243.92
2023-04-15T22:58:53.315Z,100244.98
2023-04-15T23:01:21.227Z,100242.72
2023-04-15T23:03:56.347Z,100244.08
2023-04-15T23:06:25.506Z,100246.67
2023-04-15T23:08:53.602Z,100248.41
2023-04-15T23:11:21.291Z,100252.98
2023-04-15T23:13:50.511Z,100253.67
2023-04-15T23:16:18.293Z,100250.38
2023-04-15T23:18:46.256Z,100251.98
2023-04-15T23:21:13.900Z,100252.52
2023-04-15T23:23:41.574Z,100253.00
2023-04-15T23:26:09.190Z,100255.20
2023-04-15T23:28:36.872Z,100257.19
2023-04-15T23:31:04.673Z,100254.30
2023-04-15T23:33:32.694Z,100260.00
2023-04-15T23:36:00.369Z,100256.70
2023-04-15T23:38:28.272Z,100258.20
2023-04-15T23:40:55.984Z,100257.13
2023-04-15T23:43:23.643Z,100256.43
2023-04-15T23:45:51.250Z,100253.51
2023-04-15T23:48:18.938Z,100255.29
2023-04-15T23:50:46.561Z,100252.62
2023-04-15T23:53:14.190Z,100254.45
2023-04-15T23:55:41.804Z,100254.20
2023-04-15T23:58:09.505Z,100249.79
